createdAt,value
2023-05-04T00:00:10.502Z,51.20
2023-05-04T00:02:37.406Z,51.40
2023-05-04T00:05:06.122Z,51.40
2023-05-04T00:07:33.081Z,51.50
2023-05-04T00:10:01.185Z,52.20
2023-05-04T00:12:28.495Z,51.70
2023-05-04T00:14:55.524Z,51.70
2023-05-04T00:17:22.452Z,51.70
2023-05-04T00:19:49.298Z,51.80
2023-05-04T00:22:16.069Z,52.10
2023-05-04T00:24:44.157Z,52.20
2023-05-04T00:27:11.050Z,52.40
2023-05-04T00:29:37.869Z,52.20
2023-05-04T00:32:05.082Z,52.40
2023-05-04T00:34:34.177Z,52.40
2023-05-04T00:37:01.373Z,52.50
2023-05-04T00:39:28.230Z,52.70
2023-05-04T00:41:55.089Z,52.70
2023-05-04T00:44:23.906Z,52.60
2023-05-04T00:46:52.974Z,52.70
2023-05-04T00:49:21.641Z,52.80
2023-05-04T00:51:49.932Z,52.90
2023-05-04T00:54:20.396Z,53.10
2023-05-04T00:56:47.915Z,53.10
2023-05-04T00:59:14.918Z,53.10
2023-05-04T01:01:42.092Z,53.30
2023-05-04T01:04:09.212Z,53.30
2023-05-04T01:06:49.146Z,52.80
2023-05-04T01:09:43.325Z,53.60
2023-05-04T01:12:22.278Z,53.90
2023-05-04T01:14:51.147Z,53.60
2023-05-04T01:17:17.896Z,53.40
2023-05-04T01:19:44.729Z,53.50
2023-05-04T01:22:11.470Z,53.60
2023-05-04T01:24:38.582Z,53.70
2023-05-04T01:27:14.929Z,53.60
2023-05-04T01:29:54.560Z,53.90
2023-05-04T01:32:23.797Z,53.70
2023-05-04T01:37:17.753Z,53.90
2023-05-04T01:39:44.541Z,53.50
2023-05-04T01:42:11.287Z,54.20
2023-05-04T01:44:38.040Z,54.10
2023-05-04T01:47:04.950Z,54.30
2023-05-04T01:49:31.696Z,54.30
2023-05-04T01:51:59.339Z,54.40
2023-05-04T01:54:26.169Z,54.40
2023-05-04T01:56:52.920Z,54.50
2023-05-04T01:59:19.713Z,54.50
2023-05-04T02:01:46.468Z,54.00
2023-05-04T02:04:13.312Z,54.60
2023-05-04T02:06:40.527Z,54.70
2023-05-04T02:09:07.423Z,54.90
2023-05-04T02:11:34.180Z,54.90
2023-05-04T02:14:00.966Z,54.80
2023-05-04T02:16:27.771Z,54.90
2023-05-04T02:18:54.556Z,54.80
2023-05-04T02:21:21.901Z,54.90
2023-05-04T02:23:48.761Z,55.00
2023-05-04T02:26:15.564Z,55.00
2023-05-04T02:28:42.376Z,55.00
2023-05-04T02:33:36.451Z,54.50
2023-05-04T02:36:03.311Z,55.10
2023-05-04T02:38:30.269Z,55.10
2023-05-04T02:40:58.340Z,55.20
2023-05-04T02:43:25.337Z,55.20
2023-05-04T02:45:52.260Z,55.20
2023-05-04T02:48:19.071Z,55.10
2023-05-04T02:50:46.453Z,55.20
2023-05-04T02:53:13.249Z,55.00
2023-05-04T02:55:40.036Z,55.20
2023-05-04T02:58:07.174Z,55.10
2023-05-04T03:00:34.066Z,55.30
2023-05-04T03:03:01.225Z,55.30
2023-05-04T03:05:28.201Z,55.60
2023-05-04T03:07:54.949Z,55.40
2023-05-04T03:10:21.927Z,55.50
2023-05-04T03:12:48.816Z,55.50
2023-05-04T03:15:15.776Z,55.40
2023-05-04T03:17:43.427Z,55.40
2023-05-04T03:20:12.708Z,55.60
2023-05-04T03:22:39.470Z,55.70
2023-05-04T03:25:07.084Z,55.70
2023-05-04T03:27:33.807Z,55.70
2023-05-04T03:30:00.554Z,55.50
2023-05-04T03:32:27.311Z,55.40
2023-05-04T03:34:54.073Z,56.20
2023-05-04T03:37:20.842Z,56.40
2023-05-04T03:39:47.585Z,55.80
2023-05-04T03:42:14.309Z,55.80
2023-05-04T03:44:41.216Z,56.10
2023-05-04T03:47:07.950Z,56.00
2023-05-04T03:49:35.427Z,56.00
2023-05-04T03:52:02.190Z,56.00
2023-05-04T03:54:28.968Z,56.00
2023-05-04T03:56:55.775Z,56.20
2023-05-04T03:59:22.550Z,56.10
2023-05-04T04:01:49.322Z,56.00
2023-05-04T04:04:16.118Z,56.00
2023-05-04T04:06:43.526Z,55.60
2023-05-04T04:09:10.384Z,56.10
2023-05-04T04:11:37.189Z,56.10
2023-05-04T04:14:03.937Z,55.70
2023-05-04T04:16:30.837Z,56.00
2023-05-04T04:18:58.215Z,56.00
2023-05-04T04:23:52.213Z,55.40
2023-05-04T04:26:20.341Z,56.00
2023-05-04T04:28:50.588Z,56.00
2023-05-04T04:31:21.452Z,55.90
2023-05-04T04:33:51.308Z,56.10
2023-05-04T04:36:18.810Z,56.50
2023-05-04T04:38:46.397Z,56.00
2023-05-04T04:41:13.529Z,56.10
2023-05-04T04:43:40.553Z,56.00
2023-05-04T04:46:08.273Z,56.00
2023-05-04T04:48:35.816Z,56.60
2023-05-04T04:51:02.587Z,56.10
2023-05-04T04:53:29.308Z,56.20
2023-05-04T04:55:56.053Z,56.20
2023-05-04T04:58:22.798Z,56.20
2023-05-04T05:00:52.069Z,56.30
2023-05-04T05:03:18.958Z,55.80
2023-05-04T05:08:12.997Z,55.70
2023-05-04T05:10:41.364Z,56.20
2023-05-04T05:13:09.405Z,56.10
2023-05-04T05:15:36.287Z,56.30
2023-05-04T05:18:03.143Z,56.10
2023-05-04T05:20:29.971Z,55.70
2023-05-04T05:22:56.748Z,56.10
2023-05-04T05:25:23.549Z,56.20
2023-05-04T05:27:50.297Z,56.20
2023-05-04T05:30:17.068Z,56.20
2023-05-04T05:32:43.957Z,56.20
2023-05-04T05:35:10.939Z,56.10
2023-05-04T05:37:37.813Z,55.90
2023-05-04T05:40:07.975Z,55.50
2023-05-04T05:42:34.897Z,54.80
2023-05-04T05:45:03.638Z,55.00
2023-05-04T05:47:31.133Z,55.00
2023-05-04T05:49:57.930Z,54.80
2023-05-04T05:52:24.691Z,54.60
2023-05-04T05:54:52.670Z,54.40
2023-05-04T05:57:20.683Z,54.30
2023-05-04T05:59:47.921Z,54.20
2023-05-04T06:02:15.336Z,54.10
2023-05-04T06:04:42.915Z,54.00
2023-05-04T06:07:09.695Z,53.90
2023-05-04T06:09:36.915Z,53.80
2023-05-04T06:12:04.945Z,53.60
2023-05-04T06:14:31.762Z,53.50
2023-05-04T06:16:58.716Z,53.30
2023-05-04T06:19:26.699Z,53.10
2023-05-04T06:21:53.580Z,53.00
2023-05-04T06:26:48.520Z,52.30
2023-05-04T06:29:15.383Z,52.70
2023-05-04T06:31:42.268Z,52.60
2023-05-04T06:34:09.088Z,52.50
2023-05-04T06:36:36.345Z,52.40
2023-05-04T06:39:03.803Z,51.70
2023-05-04T06:41:37.064Z,51.50
2023-05-04T06:44:05.345Z,51.90
2023-05-04T06:46:37.098Z,52.00
2023-05-04T06:49:04.480Z,51.90
2023-05-04T06:51:32.205Z,51.00
2023-05-04T06:54:01.019Z,51.50
2023-05-04T06:56:27.770Z,51.40
2023-05-04T06:58:55.010Z,51.40
2023-05-04T07:01:21.887Z,51.40
2023-05-04T07:03:48.869Z,51.30
2023-05-04T07:06:15.820Z,51.10
2023-05-04T07:08:42.844Z,51.00
2023-05-04T07:11:10.356Z,50.90
2023-05-04T07:13:38.589Z,50.80
2023-05-04T07:16:09.024Z,50.80
2023-05-04T07:18:36.314Z,50.80
2023-05-04T07:21:21.815Z,50.60
2023-05-04T07:23:51.768Z,50.50
2023-05-04T07:26:18.865Z,50.40
2023-05-04T07:28:45.623Z,50.30
2023-05-04T07:31:13.057Z,50.20
2023-05-04T07:33:40.822Z,50.20
2023-05-04T07:36:07.953Z,49.20
2023-05-04T07:38:34.916Z,49.90
2023-05-04T07:41:01.736Z,50.20
2023-05-04T07:43:28.454Z,50.00
2023-05-04T07:45:55.253Z,49.90
2023-05-04T07:48:23.376Z,49.90
2023-05-04T07:50:51.419Z,49.60
2023-05-04T07:53:20.593Z,48.90
2023-05-04T07:58:16.622Z,48.80
2023-05-04T08:00:43.493Z,49.10
2023-05-04T08:03:10.447Z,48.80
2023-05-04T08:05:37.360Z,48.80
2023-05-04T08:08:04.141Z,48.60
2023-05-04T08:10:30.957Z,48.50
2023-05-04T08:12:57.929Z,48.30
2023-05-04T08:15:24.714Z,48.30
2023-05-04T08:17:51.669Z,48.10
2023-05-04T08:20:18.602Z,48.10
2023-05-04T08:22:45.706Z,47.70
2023-05-04T08:27:39.817Z,47.30
2023-05-04T08:30:07.517Z,47.10
2023-05-04T08:32:34.323Z,47.70
2023-05-04T08:35:01.104Z,47.60
2023-05-04T08:37:27.831Z,46.60
2023-05-04T08:39:54.715Z,47.30
2023-05-04T08:42:29.593Z,47.10
2023-05-04T08:44:58.319Z,46.70
2023-05-04T08:47:27.188Z,46.70
2023-05-04T08:49:58.846Z,46.50
2023-05-04T08:52:26.483Z,46.20
2023-05-04T08:54:56.874Z,46.10
2023-05-04T08:57:25.333Z,45.30
2023-05-04T08:59:54.505Z,45.80
2023-05-04T09:02:23.330Z,45.60
2023-05-04T09:04:52.346Z,45.10
2023-05-04T09:07:21.118Z,45.40
2023-05-04T09:09:50.878Z,45.30
2023-05-04T09:12:19.193Z,45.20
2023-05-04T09:14:46.677Z,44.70
2023-05-04T09:17:29.260Z,44.90
2023-05-04T09:20:01.958Z,44.50
2023-05-04T09:22:30.529Z,44.60
2023-05-04T09:25:13.600Z,45.30
2023-05-04T09:27:42.691Z,43.60
2023-05-04T09:30:12.520Z,44.30
2023-05-04T09:32:46.746Z,44.30
2023-05-04T09:35:25.643Z,44.70
2023-05-04T09:37:59.184Z,43.10
2023-05-04T09:40:41.120Z,44.00
2023-05-04T09:43:10.723Z,43.50
2023-05-04T09:45:42.939Z,43.70
2023-05-04T09:48:38.906Z,43.60
2023-05-04T09:51:07.264Z,43.40
2023-05-04T09:53:38.274Z,43.50
2023-05-04T09:56:20.235Z,43.50
2023-05-04T09:58:49.203Z,42.20
2023-05-04T10:01:16.810Z,43.20
2023-05-04T10:03:44.129Z,43.00
2023-05-04T10:06:12.073Z,43.10
2023-05-04T10:08:41.085Z,42.90
2023-05-04T10:11:08.622Z,43.00
2023-05-04T10:13:35.471Z,42.30
2023-05-04T10:16:34.822Z,42.60
2023-05-04T10:19:16.703Z,42.10
2023-05-04T10:21:58.799Z,41.80
2023-05-04T10:25:12.385Z,42.40
2023-05-04T10:27:55.620Z,41.00
2023-05-04T10:30:23.831Z,41.30
2023-05-04T10:32:58.678Z,42.00
2023-05-04T10:35:26.949Z,41.70
2023-05-04T10:37:56.059Z,41.60
2023-05-04T10:40:39.654Z,41.70
2023-05-04T10:43:08.480Z,40.90
2023-05-04T10:45:39.918Z,41.40
2023-05-04T10:48:08.618Z,41.30
2023-05-04T10:50:46.176Z,41.30
2023-05-04T10:53:18.598Z,40.80
2023-05-04T10:55:47.720Z,40.80
2023-05-04T10:58:20.170Z,40.80
2023-05-04T11:00:51.488Z,40.30
2023-05-04T11:03:19.277Z,40.50
2023-05-04T11:05:55.741Z,40.50
2023-05-04T11:08:25.553Z,40.10
2023-05-04T11:11:07.351Z,40.20
2023-05-04T11:13:40.656Z,39.50
2023-05-04T11:16:07.692Z,39.30
2023-05-04T11:18:37.272Z,39.80
2023-05-04T11:21:04.354Z,39.90
2023-05-04T11:23:31.584Z,39.40
2023-05-04T11:25:58.349Z,39.90
2023-05-04T11:28:38.642Z,39.80
2023-05-04T11:31:17.061Z,38.80
2023-05-04T11:33:54.929Z,39.20
2023-05-04T11:36:22.615Z,38.90
2023-05-04T11:38:50.896Z,39.70
2023-05-04T11:41:17.848Z,39.70
2023-05-04T11:43:46.694Z,39.50
2023-05-04T11:46:16.482Z,39.10
2023-05-04T11:48:43.793Z,38.70
2023-05-04T11:51:11.318Z,38.70
2023-05-04T11:53:39.955Z,38.00
2023-05-04T11:56:09.057Z,38.50
2023-05-04T11:58:36.919Z,38.40
2023-05-04T12:01:04.303Z,38.30
2023-05-04T12:03:48.026Z,38.20
2023-05-04T12:06:18.644Z,38.20
2023-05-04T12:08:45.571Z,38.80
2023-05-04T12:11:25.099Z,37.80
2023-05-04T12:14:13.746Z,37.70
2023-05-04T12:16:42.821Z,36.90
2023-05-04T12:19:12.755Z,37.50
2023-05-04T12:21:54.277Z,37.50
2023-05-04T12:24:27.910Z,36.40
2023-05-04T12:26:54.756Z,37.00
2023-05-04T12:29:21.551Z,36.10
2023-05-04T12:31:48.344Z,37.40
2023-05-04T12:34:15.173Z,37.30
2023-05-04T12:36:41.930Z,37.10
2023-05-04T12:39:08.797Z,36.60
2023-05-04T12:41:35.669Z,36.90
2023-05-04T12:44:02.860Z,36.40
2023-05-04T12:46:29.862Z,36.20
2023-05-04T12:48:57.276Z,36.10
2023-05-04T12:51:24.058Z,36.30
2023-05-04T12:53:50.930Z,36.50
2023-05-04T12:58:44.978Z,34.80
2023-05-04T13:01:11.746Z,35.70
2023-05-04T13:03:38.628Z,34.90
2023-05-04T13:06:05.977Z,33.80
2023-05-04T13:08:33.594Z,34.90
2023-05-04T13:11:00.506Z,35.10
2023-05-04T13:15:57.204Z,34.40
2023-05-04T13:18:27.246Z,34.90
2023-05-04T13:20:56.133Z,34.80
2023-05-04T13:23:23.689Z,36.00
2023-05-04T13:25:51.474Z,35.10
2023-05-04T13:28:18.976Z,35.40
2023-05-04T13:30:45.743Z,35.40
2023-05-04T13:33:25.048Z,35.40
2023-05-04T13:35:56.902Z,35.10
2023-05-04T13:38:23.708Z,35.10
2023-05-04T13:40:50.661Z,34.80
2023-05-04T13:43:17.394Z,34.80
2023-05-04T13:45:44.143Z,34.80
2023-05-04T13:48:10.919Z,34.30
2023-05-04T13:50:37.732Z,34.30
2023-05-04T13:53:04.530Z,34.40
2023-05-04T13:55:31.417Z,34.10
2023-05-04T13:57:58.217Z,34.10
2023-05-04T14:00:25.056Z,34.50
2023-05-04T14:02:52.231Z,33.90
2023-05-04T14:05:19.256Z,34.10
2023-05-04T14:07:46.085Z,33.40
2023-05-04T14:10:13.100Z,34.10
2023-05-04T14:15:08.220Z,33.20
2023-05-04T14:17:35.090Z,33.80
2023-05-04T14:20:01.928Z,34.00
2023-05-04T14:22:28.704Z,34.20
2023-05-04T14:24:55.542Z,34.20
2023-05-04T14:27:22.684Z,33.50
2023-05-04T14:29:49.504Z,33.70
2023-05-04T14:32:16.300Z,33.80
2023-05-04T14:37:10.323Z,33.30
2023-05-04T14:39:37.106Z,33.80
2023-05-04T14:42:03.927Z,33.90
2023-05-04T14:44:30.925Z,33.90
2023-05-04T14:46:57.756Z,34.50
2023-05-04T14:49:35.561Z,33.80
2023-05-04T14:52:03.981Z,33.80
2023-05-04T14:54:30.818Z,33.70
2023-05-04T14:56:58.919Z,34.00
2023-05-04T14:59:26.210Z,33.80
2023-05-04T15:01:54.880Z,33.50
2023-05-04T15:04:22.069Z,33.50
2023-05-04T15:06:49.496Z,33.60
2023-05-04T15:09:16.501Z,33.50
2023-05-04T15:11:43.387Z,33.60
2023-05-04T15:14:10.179Z,33.30
2023-05-04T15:16:37.114Z,33.40
2023-05-04T15:19:03.962Z,33.30
2023-05-04T15:21:31.578Z,33.20
2023-05-04T15:23:58.644Z,33.10
2023-05-04T15:26:25.747Z,33.10
2023-05-04T15:28:53.978Z,33.10
2023-05-04T15:31:21.625Z,33.00
2023-05-04T15:33:51.334Z,33.10
2023-05-04T15:36:18.670Z,33.00
2023-05-04T15:38:45.486Z,32.20
2023-05-04T15:41:14.116Z,32.90
2023-05-04T15:43:41.056Z,32.60
2023-05-04T15:46:07.865Z,32.90
2023-05-04T15:48:34.624Z,32.40
2023-05-04T15:51:01.438Z,33.20
2023-05-04T15:53:28.211Z,33.60
2023-05-04T15:55:54.954Z,32.90
2023-05-04T15:58:21.729Z,32.60
2023-05-04T16:00:48.528Z,32.60
2023-05-04T16:05:43.807Z,32.20
2023-05-04T16:10:38.266Z,32.10
2023-05-04T16:13:05.403Z,32.70
2023-05-04T16:15:32.337Z,32.70
2023-05-04T16:17:59.406Z,33.00
2023-05-04T16:20:28.470Z,32.80
2023-05-04T16:22:55.324Z,32.80
2023-05-04T16:25:22.161Z,32.70
2023-05-04T16:27:48.989Z,32.70
2023-05-04T16:30:15.945Z,32.60
2023-05-04T16:32:42.762Z,32.60
2023-05-04T16:35:09.813Z,32.30
2023-05-04T16:37:38.437Z,31.40
2023-05-04T16:40:16.309Z,32.40
2023-05-04T16:42:43.724Z,32.20
2023-05-04T16:45:13.373Z,32.50
2023-05-04T16:47:42.008Z,32.50
2023-05-04T16:50:13.415Z,32.20
2023-05-04T16:52:40.537Z,32.40
2023-05-04T16:55:11.831Z,32.10
2023-05-04T16:57:39.512Z,32.60
2023-05-04T17:00:07.853Z,32.40
2023-05-04T17:02:35.947Z,32.20
2023-05-04T17:05:06.468Z,32.00
2023-05-04T17:07:34.014Z,31.90
2023-05-04T17:10:00.799Z,32.20
2023-05-04T17:12:28.817Z,32.30
2023-05-04T17:14:55.890Z,32.10
2023-05-04T17:17:22.845Z,32.20
2023-05-04T17:19:49.748Z,32.30
2023-05-04T17:22:17.357Z,32.40
2023-05-04T17:24:45.694Z,32.40
2023-05-04T17:27:13.131Z,32.40
2023-05-04T17:29:41.021Z,32.70
2023-05-04T17:32:08.272Z,32.70
2023-05-04T17:34:35.950Z,32.80
2023-05-04T17:37:02.674Z,31.80
2023-05-04T17:39:31.429Z,32.70
2023-05-04T17:41:58.849Z,32.40
2023-05-04T17:44:26.096Z,32.80
2023-05-04T17:46:52.995Z,32.10
2023-05-04T17:49:19.786Z,32.80
2023-05-04T17:51:49.073Z,32.70
2023-05-04T17:54:16.859Z,32.40
2023-05-04T17:56:43.783Z,32.30
2023-05-04T17:59:10.529Z,32.90
2023-05-04T18:01:37.327Z,32.90
2023-05-04T18:04:04.361Z,33.00
2023-05-04T18:06:32.971Z,33.10
2023-05-04T18:09:00.987Z,33.10
2023-05-04T18:11:27.834Z,33.20
2023-05-04T18:13:56.334Z,33.30
2023-05-04T18:16:24.821Z,33.40
2023-05-04T18:18:52.326Z,33.50
2023-05-04T18:21:19.222Z,33.80
2023-05-04T18:23:46.725Z,34.10
2023-05-04T18:26:22.530Z,34.50
2023-05-04T18:28:50.174Z,34.70
2023-05-04T18:31:17.369Z,35.20
2023-05-04T18:33:44.219Z,34.80
2023-05-04T18:36:11.109Z,34.70
2023-05-04T18:38:37.899Z,35.60
2023-05-04T18:41:05.344Z,36.00
2023-05-04T18:43:32.139Z,36.10
2023-05-04T18:46:06.395Z,36.40
2023-05-04T18:48:33.479Z,36.00
2023-05-04T18:51:03.362Z,35.80
2023-05-04T18:53:32.703Z,36.60
2023-05-04T18:56:08.143Z,37.10
2023-05-04T18:58:38.945Z,36.80
2023-05-04T19:01:06.247Z,37.00
2023-05-04T19:03:33.729Z,36.70
2023-05-04T19:06:00.619Z,36.60
2023-05-04T19:08:27.467Z,37.30
2023-05-04T19:10:59.220Z,37.20
2023-05-04T19:13:26.149Z,37.00
2023-05-04T19:18:20.451Z,37.00
2023-05-04T19:20:47.213Z,37.20
2023-05-04T19:23:14.134Z,37.40
2023-05-04T19:25:40.986Z,37.70
2023-05-04T19:28:10.718Z,37.80
2023-05-04T19:30:39.224Z,37.90
2023-05-04T19:33:08.329Z,37.50
2023-05-04T19:35:35.672Z,37.50
2023-05-04T19:38:02.647Z,38.00
2023-05-04T19:40:29.482Z,38.00
2023-05-04T19:42:56.354Z,38.00
2023-05-04T19:45:24.060Z,38.20
2023-05-04T19:47:52.346Z,38.20
2023-05-04T19:50:19.766Z,38.30
2023-05-04T19:52:46.491Z,38.30
2023-05-04T19:55:13.374Z,38.30
2023-05-04T19:57:40.219Z,38.30
2023-05-04T20:00:09.706Z,38.40
2023-05-04T20:02:38.219Z,38.40
2023-05-04T20:05:08.213Z,38.20
2023-05-04T20:07:35.139Z,38.60
2023-05-04T20:10:01.888Z,38.60
2023-05-04T20:12:28.821Z,38.60
2023-05-04T20:14:55.993Z,38.60
2023-05-04T20:17:23.366Z,38.70
2023-05-04T20:19:50.239Z,38.70
2023-05-04T20:22:17.071Z,38.70
2023-05-04T20:24:43.910Z,38.70
2023-05-04T20:27:10.771Z,38.70
2023-05-04T20:29:37.504Z,38.50
2023-05-04T20:32:05.322Z,38.80
2023-05-04T20:34:32.216Z,38.90
2023-05-04T20:36:59.064Z,38.80
2023-05-04T20:39:25.834Z,38.90
2023-05-04T20:41:52.988Z,40.90
2023-05-04T20:44:19.819Z,39.40
2023-05-04T20:46:46.734Z,39.60
2023-05-04T20:49:13.781Z,39.60
2023-05-04T20:51:40.601Z,39.80
2023-05-04T20:54:07.439Z,39.80
2023-05-04T20:56:34.184Z,39.80
2023-05-04T20:59:01.008Z,40.20
2023-05-04T21:01:29.592Z,40.30
2023-05-04T21:03:56.719Z,40.40
2023-05-04T21:06:24.381Z,40.50
2023-05-04T21:08:51.180Z,40.30
2023-05-04T21:11:17.929Z,40.80
2023-05-04T21:13:46.957Z,40.60
2023-05-04T21:16:13.930Z,41.10
2023-05-04T21:18:42.744Z,40.70
2023-05-04T21:21:09.490Z,40.90
2023-05-04T21:23:36.241Z,41.50
2023-05-04T21:26:04.364Z,41.60
2023-05-04T21:28:32.319Z,41.20
2023-05-04T21:30:59.583Z,41.60
2023-05-04T21:33:26.568Z,41.80
2023-05-04T21:35:53.375Z,42.00
2023-05-04T21:38:22.042Z,42.20
2023-05-04T21:40:49.290Z,42.30
2023-05-04T21:43:16.124Z,42.60
2023-05-04T21:45:42.958Z,42.70
2023-05-04T21:48:09.788Z,42.70
2023-05-04T21:50:36.593Z,42.80
2023-05-04T21:53:03.379Z,43.00
2023-05-04T21:55:30.416Z,42.60
2023-05-04T21:57:57.351Z,43.10
2023-05-04T22:00:24.371Z,43.20
2023-05-04T22:02:54.942Z,42.80
2023-05-04T22:05:22.473Z,43.50
2023-05-04T22:07:50.200Z,43.40
2023-05-04T22:10:17.777Z,43.40
2023-05-04T22:12:44.558Z,43.60
2023-05-04T22:15:11.682Z,43.70
2023-05-04T22:17:38.902Z,43.80
2023-05-04T22:20:06.805Z,44.00
2023-05-04T22:22:33.794Z,44.10
2023-05-04T22:25:00.542Z,44.40
2023-05-04T22:27:27.414Z,44.50
2023-05-04T22:29:54.142Z,44.70
2023-05-04T22:32:20.910Z,44.70
2023-05-04T22:34:47.680Z,44.20
2023-05-04T22:37:14.422Z,45.20
2023-05-04T22:39:41.285Z,45.20
2023-05-04T22:42:08.026Z,45.30
2023-05-04T22:44:34.823Z,45.30
2023-05-04T22:47:01.768Z,45.60
2023-05-04T22:49:28.489Z,45.40
2023-05-04T22:51:55.249Z,46.00
2023-05-04T22:54:22.124Z,46.10
2023-05-04T22:56:48.853Z,45.60
2023-05-04T22:59:15.601Z,46.30
2023-05-04T23:01:43.458Z,46.20
2023-05-04T23:04:11.474Z,46.60
2023-05-04T23:06:38.664Z,46.50
2023-05-04T23:09:05.492Z,46.60
2023-05-04T23:11:32.464Z,46.80
2023-05-04T23:13:59.409Z,47.10
2023-05-04T23:16:26.203Z,47.10
2023-05-04T23:18:52.928Z,47.40
2023-05-04T23:21:19.770Z,47.20
2023-05-04T23:23:46.707Z,47.10
2023-05-04T23:26:13.455Z,47.60
2023-05-04T23:28:40.320Z,47.70
2023-05-04T23:31:07.091Z,47.80
2023-05-04T23:33:33.838Z,47.60
2023-05-04T23:36:00.716Z,48.20
2023-05-04T23:40:54.851Z,47.90
2023-05-04T23:43:23.601Z,48.40
2023-05-04T23:46:01.993Z,48.00
2023-05-04T23:48:30.365Z,48.50
2023-05-04T23:50:58.440Z,48.70
2023-05-04T23:53:28.295Z,48.60
2023-05-04T23:56:04.061Z,48.60
2023-05-04T23:58:33.419Z,48.80
